sensor_id;sensor_type;location;lat;lon;timestamp;P1;durP1;ratioP1;P2;durP2;ratioP2
41568;SDS011;27283;52.504;13.358;2022-09-30T00:00:53;2.05;;;1.92;;
41568;SDS011;27283;52.504;13.358;2022-09-30T00:03:36;2.03;;;1.75;;
41568;SDS011;27283;52.504;13.358;2022-09-30T00:06:08;1.70;;;1.58;;
41568;SDS011;27283;52.504;13.358;2022-09-30T00:08:41;1.90;;;1.80;;
41568;SDS011;27283;52.504;13.358;2022-09-30T00:11:14;2.25;;;2.05;;
41568;SDS011;27283;52.504;13.358;2022-09-30T00:13:51;2.38;;;2.08;;
41568;SDS011;27283;52.504;13.358;2022-09-30T00:16:25;2.97;;;2.35;;
41568;SDS011;27283;52.504;13.358;2022-09-30T00:19:00;2.85;;;2.15;;
41568;SDS011;27283;52.504;13.358;2022-09-30T00:21:33;3.83;;;2.80;;
41568;SDS011;27283;52.504;13.358;2022-09-30T00:24:05;2.58;;;2.38;;
41568;SDS011;27283;52.504;13.358;2022-09-30T00:26:38;1.83;;;1.73;;
41568;SDS011;27283;52.504;13.358;2022-09-30T00:29:13;2.67;;;2.42;;
41568;SDS011;27283;52.504;13.358;2022-09-30T00:31:45;2.10;;;1.95;;
41568;SDS011;27283;52.504;13.358;2022-09-30T00:34:17;1.70;;;1.52;;
41568;SDS011;27283;52.504;13.358;2022-09-30T00:36:50;3.08;;;2.33;;
41568;SDS011;27283;52.504;13.358;2022-09-30T00:39:24;9.10;;;2.78;;
41568;SDS011;27283;52.504;13.358;2022-09-30T00:41:58;6.65;;;3.30;;
41568;SDS011;27283;52.504;13.358;2022-09-30T00:47:34;1.80;;;1.42;;
41568;SDS011;27283;52.504;13.358;2022-09-30T00:50:25;3.22;;;2.35;;
41568;SDS011;27283;52.504;13.358;2022-09-30T00:53:08;2.85;;;2.38;;
41568;SDS011;27283;52.504;13.358;2022-09-30T00:55:45;2.25;;;1.88;;
41568;SDS011;27283;52.504;13.358;2022-09-30T00:58:24;5.78;;;2.40;;
41568;SDS011;27283;52.504;13.358;2022-09-30T01:01:03;2.90;;;2.38;;
41568;SDS011;27283;52.504;13.358;2022-09-30T01:03:39;3.88;;;2.58;;
41568;SDS011;27283;52.504;13.358;2022-09-30T01:06:13;2.65;;;2.42;;
41568;SDS011;27283;52.504;13.358;2022-09-30T01:08:50;3.13;;;1.88;;
41568;SDS011;27283;52.504;13.358;2022-09-30T01:11:26;2.35;;;2.15;;
41568;SDS011;27283;52.504;13.358;2022-09-30T01:14:03;2.00;;;1.85;;
41568;SDS011;27283;52.504;13.358;2022-09-30T01:19:53;3.33;;;2.58;;
41568;SDS011;27283;52.504;13.358;2022-09-30T01:22:44;1.45;;;1.35;;
41568;SDS011;27283;52.504;13.358;2022-09-30T01:31:55;2.80;;;2.25;;
41568;SDS011;27283;52.504;13.358;2022-09-30T01:34:38;1.80;;;1.70;;
41568;SDS011;27283;52.504;13.358;2022-09-30T01:37:20;3.15;;;1.73;;
41568;SDS011;27283;52.504;13.358;2022-09-30T01:39:58;4.45;;;2.55;;
41568;SDS011;27283;52.504;13.358;2022-09-30T01:42:37;1.45;;;1.35;;
41568;SDS011;27283;52.504;13.358;2022-09-30T01:45:15;2.00;;;1.90;;
41568;SDS011;27283;52.504;13.358;2022-09-30T01:47:55;2.88;;;1.85;;
41568;SDS011;27283;52.504;13.358;2022-09-30T01:50:34;9.55;;;2.83;;
41568;SDS011;27283;52.504;13.358;2022-09-30T01:53:15;2.33;;;2.13;;
41568;SDS011;27283;52.504;13.358;2022-09-30T01:55:56;3.20;;;2.03;;
41568;SDS011;27283;52.504;13.358;2022-09-30T01:58:36;2.10;;;2.00;;
41568;SDS011;27283;52.504;13.358;2022-09-30T02:01:16;3.38;;;2.97;;
41568;SDS011;27283;52.504;13.358;2022-09-30T02:03:55;1.65;;;1.55;;
41568;SDS011;27283;52.504;13.358;2022-09-30T02:06:32;1.55;;;1.42;;
41568;SDS011;27283;52.504;13.358;2022-09-30T02:09:10;2.55;;;2.35;;
41568;SDS011;27283;52.504;13.358;2022-09-30T02:11:48;2.22;;;2.03;;
41568;SDS011;27283;52.504;13.358;2022-09-30T02:14:21;2.13;;;2.03;;
41568;SDS011;27283;52.504;13.358;2022-09-30T02:16:58;2.55;;;2.22;;
41568;SDS011;27283;52.504;13.358;2022-09-30T02:19:36;7.70;;;3.35;;
41568;SDS011;27283;52.504;13.358;2022-09-30T02:22:12;4.65;;;1.73;;
41568;SDS011;27283;52.504;13.358;2022-09-30T02:24:49;2.40;;;2.05;;
41568;SDS011;27283;52.504;13.358;2022-09-30T02:27:25;1.90;;;1.73;;
41568;SDS011;27283;52.504;13.358;2022-09-30T02:30:03;1.92;;;1.77;;
41568;SDS011;27283;52.504;13.358;2022-09-30T02:32:37;10.50;;;3.00;;
41568;SDS011;27283;52.504;13.358;2022-09-30T02:35:16;1.95;;;1.85;;
41568;SDS011;27283;52.504;13.358;2022-09-30T02:37:51;5.00;;;2.75;;
41568;SDS011;27283;52.504;13.358;2022-09-30T02:40:27;4.72;;;2.47;;
41568;SDS011;27283;52.504;13.358;2022-09-30T02:43:06;2.15;;;1.58;;
41568;SDS011;27283;52.504;13.358;2022-09-30T02:45:42;2.42;;;2.22;;
41568;SDS011;27283;52.504;13.358;2022-09-30T02:48:24;1.70;;;1.60;;
41568;SDS011;27283;52.504;13.358;2022-09-30T02:51:05;1.40;;;1.30;;
41568;SDS011;27283;52.504;13.358;2022-09-30T02:53:50;3.05;;;1.90;;
41568;SDS011;27283;52.504;13.358;2022-09-30T02:56:33;3.17;;;2.13;;
41568;SDS011;27283;52.504;13.358;2022-09-30T02:59:12;2.15;;;1.95;;
41568;SDS011;27283;52.504;13.358;2022-09-30T03:01:44;3.08;;;1.98;;
41568;SDS011;27283;52.504;13.358;2022-09-30T03:04:17;2.40;;;2.20;;
41568;SDS011;27283;52.504;13.358;2022-09-30T03:06:57;2.40;;;1.80;;
41568;SDS011;27283;52.504;13.358;2022-09-30T03:09:30;2.72;;;2.00;;
41568;SDS011;27283;52.504;13.358;2022-09-30T03:12:15;4.45;;;2.17;;
41568;SDS011;27283;52.504;13.358;2022-09-30T03:15:04;2.67;;;2.25;;
41568;SDS011;27283;52.504;13.358;2022-09-30T03:17:54;2.42;;;2.05;;
41568;SDS011;27283;52.504;13.358;2022-09-30T03:20:51;1.92;;;1.83;;
41568;SDS011;27283;52.504;13.358;2022-09-30T03:26:53;2.13;;;1.90;;
41568;SDS011;27283;52.504;13.358;2022-09-30T03:29:40;1.98;;;1.80;;
41568;SDS011;27283;52.504;13.358;2022-09-30T03:32:25;1.50;;;1.40;;
41568;SDS011;27283;52.504;13.358;2022-09-30T03:35:15;3.05;;;2.50;;
41568;SDS011;27283;52.504;13.358;2022-09-30T03:37:54;4.03;;;1.60;;
41568;SDS011;27283;52.504;13.358;2022-09-30T03:40:38;3.30;;;1.67;;
41568;SDS011;27283;52.504;13.358;2022-09-30T03:43:16;2.90;;;2.15;;
41568;SDS011;27283;52.504;13.358;2022-09-30T03:45:54;2.42;;;1.92;;
41568;SDS011;27283;52.504;13.358;2022-09-30T03:48:33;2.50;;;2.10;;
41568;SDS011;27283;52.504;13.358;2022-09-30T03:51:08;2.78;;;2.20;;
41568;SDS011;27283;52.504;13.358;2022-09-30T03:53:40;1.88;;;1.77;;
41568;SDS011;27283;52.504;13.358;2022-09-30T03:56:16;3.30;;;2.38;;
41568;SDS011;27283;52.504;13.358;2022-09-30T03:58:55;2.80;;;2.60;;
41568;SDS011;27283;52.504;13.358;2022-09-30T04:01:27;2.35;;;1.88;;
41568;SDS011;27283;52.504;13.358;2022-09-30T04:03:59;1.50;;;1.40;;
41568;SDS011;27283;52.504;13.358;2022-09-30T04:06:31;3.92;;;2.65;;
41568;SDS011;27283;52.504;13.358;2022-09-30T04:09:03;1.52;;;1.40;;
41568;SDS011;27283;52.504;13.358;2022-09-30T04:11:38;2.15;;;1.83;;
41568;SDS011;27283;52.504;13.358;2022-09-30T04:14:10;1.42;;;1.35;;
41568;SDS011;27283;52.504;13.358;2022-09-30T04:16:42;3.08;;;2.20;;
41568;SDS011;27283;52.504;13.358;2022-09-30T04:19:20;5.55;;;1.92;;
41568;SDS011;27283;52.504;13.358;2022-09-30T04:21:52;2.80;;;2.33;;
41568;SDS011;27283;52.504;13.358;2022-09-30T04:24:24;2.15;;;1.95;;
41568;SDS011;27283;52.504;13.358;2022-09-30T04:26:59;2.22;;;2.03;;
41568;SDS011;27283;52.504;13.358;2022-09-30T04:29:31;1.60;;;1.50;;
41568;SDS011;27283;52.504;13.358;2022-09-30T04:32:03;1.90;;;1.80;;
41568;SDS011;27283;52.504;13.358;2022-09-30T04:34:35;5.82;;;3.33;;
41568;SDS011;27283;52.504;13.358;2022-09-30T04:37:07;4.05;;;1.83;;
41568;SDS011;27283;52.504;13.358;2022-09-30T04:39:40;3.00;;;2.47;;
41568;SDS011;27283;52.504;13.358;2022-09-30T04:42:14;1.50;;;1.40;;
41568;SDS011;27283;52.504;13.358;2022-09-30T04:44:46;1.65;;;1.55;;
41568;SDS011;27283;52.504;13.358;2022-09-30T04:47:19;2.97;;;1.95;;
41568;SDS011;27283;52.504;13.358;2022-09-30T04:49:52;1.92;;;1.60;;
41568;SDS011;27283;52.504;13.358;2022-09-30T04:52:24;1.55;;;1.45;;
41568;SDS011;27283;52.504;13.358;2022-09-30T04:54:56;5.00;;;2.90;;
41568;SDS011;27283;52.504;13.358;2022-09-30T04:57:31;3.88;;;2.28;;
41568;SDS011;27283;52.504;13.358;2022-09-30T05:00:03;1.33;;;1.30;;
41568;SDS011;27283;52.504;13.358;2022-09-30T05:02:36;5.32;;;2.20;;
41568;SDS011;27283;52.504;13.358;2022-09-30T05:05:08;3.22;;;2.53;;
41568;SDS011;27283;52.504;13.358;2022-09-30T05:07:41;1.73;;;1.63;;
41568;SDS011;27283;52.504;13.358;2022-09-30T05:10:14;1.90;;;1.73;;
41568;SDS011;27283;52.504;13.358;2022-09-30T05:12:50;3.72;;;2.10;;
41568;SDS011;27283;52.504;13.358;2022-09-30T05:15:23;1.73;;;1.60;;
41568;SDS011;27283;52.504;13.358;2022-09-30T05:17:55;3.70;;;1.85;;
41568;SDS011;27283;52.504;13.358;2022-09-30T05:20:27;1.50;;;1.40;;
41568;SDS011;27283;52.504;13.358;2022-09-30T05:22:59;2.30;;;2.15;;
41568;SDS011;27283;52.504;13.358;2022-09-30T05:25:31;2.00;;;1.88;;
41568;SDS011;27283;52.504;13.358;2022-09-30T05:28:08;4.13;;;1.52;;
41568;SDS011;27283;52.504;13.358;2022-09-30T05:30:40;1.73;;;1.60;;
41568;SDS011;27283;52.504;13.358;2022-09-30T05:33:14;2.80;;;2.33;;
41568;SDS011;27283;52.504;13.358;2022-09-30T05:35:46;2.55;;;2.35;;
41568;SDS011;27283;52.504;13.358;2022-09-30T05:38:18;2.53;;;2.33;;
41568;SDS011;27283;52.504;13.358;2022-09-30T05:40:50;2.08;;;1.83;;
41568;SDS011;27283;52.504;13.358;2022-09-30T05:43:26;3.17;;;2.25;;
41568;SDS011;27283;52.504;13.358;2022-09-30T05:46:00;2.15;;;1.98;;
41568;SDS011;27283;52.504;13.358;2022-09-30T05:48:33;1.50;;;1.45;;
41568;SDS011;27283;52.504;13.358;2022-09-30T05:51:05;3.15;;;2.47;;
41568;SDS011;27283;52.504;13.358;2022-09-30T05:53:38;3.00;;;1.88;;
41568;SDS011;27283;52.504;13.358;2022-09-30T05:56:10;2.25;;;2.05;;
41568;SDS011;27283;52.504;13.358;2022-09-30T05:58:46;2.13;;;1.92;;
41568;SDS011;27283;52.504;13.358;2022-09-30T06:01:18;1.92;;;1.83;;
41568;SDS011;27283;52.504;13.358;2022-09-30T06:03:51;3.35;;;3.05;;
41568;SDS011;27283;52.504;13.358;2022-09-30T06:06:23;3.05;;;2.80;;
41568;SDS011;27283;52.504;13.358;2022-09-30T06:08:58;2.90;;;2.58;;
41568;SDS011;27283;52.504;13.358;2022-09-30T06:11:30;1.63;;;1.52;;
41568;SDS011;27283;52.504;13.358;2022-09-30T06:14:05;3.95;;;2.80;;
41568;SDS011;27283;52.504;13.358;2022-09-30T06:16:37;2.05;;;1.92;;
41568;SDS011;27283;52.504;13.358;2022-09-30T06:19:10;2.80;;;2.60;;
41568;SDS011;27283;52.504;13.358;2022-09-30T06:21:42;2.65;;;2.10;;
41568;SDS011;27283;52.504;13.358;2022-09-30T06:24:15;1.52;;;1.42;;
41568;SDS011;27283;52.504;13.358;2022-09-30T06:26:47;4.57;;;2.97;;
41568;SDS011;27283;52.504;13.358;2022-09-30T06:29:22;2.08;;;1.88;;
41568;SDS011;27283;52.504;13.358;2022-09-30T06:31:55;2.15;;;2.00;;
41568;SDS011;27283;52.504;13.358;2022-09-30T06:34:27;2.83;;;1.85;;
41568;SDS011;27283;52.504;13.358;2022-09-30T06:36:59;2.50;;;2.30;;
41568;SDS011;27283;52.504;13.358;2022-09-30T06:39:31;2.88;;;2.38;;
41568;SDS011;27283;52.504;13.358;2022-09-30T06:42:03;2.50;;;2.30;;
41568;SDS011;27283;52.504;13.358;2022-09-30T06:44:38;3.17;;;2.42;;
41568;SDS011;27283;52.504;13.358;2022-09-30T06:47:32;6.18;;;2.13;;
41568;SDS011;27283;52.504;13.358;2022-09-30T06:50:14;27.45;;;3.47;;
41568;SDS011;27283;52.504;13.358;2022-09-30T06:52:55;2.00;;;1.88;;
41568;SDS011;27283;52.504;13.358;2022-09-30T06:55:29;4.60;;;2.63;;
41568;SDS011;27283;52.504;13.358;2022-09-30T06:58:01;2.63;;;2.08;;
41568;SDS011;27283;52.504;13.358;2022-09-30T07:00:37;8.63;;;2.90;;
41568;SDS011;27283;52.504;13.358;2022-09-30T07:03:17;5.90;;;3.28;;
41568;SDS011;27283;52.504;13.358;2022-09-30T07:05:56;3.17;;;2.42;;
41568;SDS011;27283;52.504;13.358;2022-09-30T07:08:29;9.30;;;2.53;;
41568;SDS011;27283;52.504;13.358;2022-09-30T07:11:03;4.45;;;2.45;;
41568;SDS011;27283;52.504;13.358;2022-09-30T07:13:39;4.97;;;2.60;;
41568;SDS011;27283;52.504;13.358;2022-09-30T07:16:15;5.95;;;2.65;;
41568;SDS011;27283;52.504;13.358;2022-09-30T07:18:49;3.97;;;2.85;;
41568;SDS011;27283;52.504;13.358;2022-09-30T07:21:22;3.47;;;2.85;;
41568;SDS011;27283;52.504;13.358;2022-09-30T07:23:54;3.67;;;2.42;;
41568;SDS011;27283;52.504;13.358;2022-09-30T07:26:27;3.58;;;2.55;;
41568;SDS011;27283;52.504;13.358;2022-09-30T07:28:59;2.08;;;1.88;;
41568;SDS011;27283;52.504;13.358;2022-09-30T07:31:34;3.70;;;2.75;;
41568;SDS011;27283;52.504;13.358;2022-09-30T07:34:07;4.90;;;2.78;;
41568;SDS011;27283;52.504;13.358;2022-09-30T07:36:40;4.00;;;2.47;;
41568;SDS011;27283;52.504;13.358;2022-09-30T07:39:12;3.10;;;2.50;;
41568;SDS011;27283;52.504;13.358;2022-09-30T07:41:45;4.35;;;2.35;;
41568;SDS011;27283;52.504;13.358;2022-09-30T07:44:16;5.30;;;2.97;;
41568;SDS011;27283;52.504;13.358;2022-09-30T07:46:51;12.15;;;3.53;;
41568;SDS011;27283;52.504;13.358;2022-09-30T07:49:23;6.65;;;2.63;;
41568;SDS011;27283;52.504;13.358;2022-09-30T07:51:56;5.70;;;3.00;;
41568;SDS011;27283;52.504;13.358;2022-09-30T07:54:29;6.25;;;2.67;;
41568;SDS011;27283;52.504;13.358;2022-09-30T07:57:10;5.72;;;3.75;;
41568;SDS011;27283;52.504;13.358;2022-09-30T07:59:42;5.53;;;2.97;;
41568;SDS011;27283;52.504;13.358;2022-09-30T08:02:18;4.70;;;3.30;;
41568;SDS011;27283;52.504;13.358;2022-09-30T08:04:52;5.15;;;2.63;;
41568;SDS011;27283;52.504;13.358;2022-09-30T08:07:24;3.38;;;3.08;;
41568;SDS011;27283;52.504;13.358;2022-09-30T08:09:56;2.92;;;2.30;;
41568;SDS011;27283;52.504;13.358;2022-09-30T08:12:29;4.72;;;2.80;;
41568;SDS011;27283;52.504;13.358;2022-09-30T08:15:03;6.15;;;3.30;;
41568;SDS011;27283;52.504;13.358;2022-09-30T08:17:39;4.18;;;2.63;;
41568;SDS011;27283;52.504;13.358;2022-09-30T08:20:12;3.55;;;2.40;;
41568;SDS011;27283;52.504;13.358;2022-09-30T08:22:51;4.13;;;2.90;;
41568;SDS011;27283;52.504;13.358;2022-09-30T08:25:24;3.63;;;2.60;;
41568;SDS011;27283;52.504;13.358;2022-09-30T08:27:57;8.15;;;2.58;;
41568;SDS011;27283;52.504;13.358;2022-09-30T08:30:29;5.25;;;2.85;;
41568;SDS011;27283;52.504;13.358;2022-09-30T08:33:05;3.42;;;2.20;;
41568;SDS011;27283;52.504;13.358;2022-09-30T08:35:37;4.40;;;2.42;;
41568;SDS011;27283;52.504;13.358;2022-09-30T08:38:10;4.43;;;2.40;;
41568;SDS011;27283;52.504;13.358;2022-09-30T08:40:45;5.22;;;2.55;;
41568;SDS011;27283;52.504;13.358;2022-09-30T08:43:26;3.90;;;1.95;;
41568;SDS011;27283;52.504;13.358;2022-09-30T08:46:11;5.43;;;2.80;;
41568;SDS011;27283;52.504;13.358;2022-09-30T08:48:58;2.78;;;2.42;;
41568;SDS011;27283;52.504;13.358;2022-09-30T08:51:44;3.97;;;2.58;;
41568;SDS011;27283;52.504;13.358;2022-09-30T08:54:20;3.33;;;2.05;;
41568;SDS011;27283;52.504;13.358;2022-09-30T08:56:56;4.70;;;2.53;;
41568;SDS011;27283;52.504;13.358;2022-09-30T08:59:31;4.40;;;2.55;;
41568;SDS011;27283;52.504;13.358;2022-09-30T09:02:11;4.43;;;2.15;;
41568;SDS011;27283;52.504;13.358;2022-09-30T09:04:56;4.03;;;2.25;;
41568;SDS011;27283;52.504;13.358;2022-09-30T09:07:34;6.25;;;2.83;;
41568;SDS011;27283;52.504;13.358;2022-09-30T09:10:20;3.30;;;1.85;;
41568;SDS011;27283;52.504;13.358;2022-09-30T09:13:01;3.65;;;2.00;;
41568;SDS011;27283;52.504;13.358;2022-09-30T09:15:46;4.78;;;2.42;;
41568;SDS011;27283;52.504;13.358;2022-09-30T09:18:32;4.93;;;2.22;;
41568;SDS011;27283;52.504;13.358;2022-09-30T09:21:21;3.63;;;2.20;;
41568;SDS011;27283;52.504;13.358;2022-09-30T09:24:00;6.90;;;1.92;;
41568;SDS011;27283;52.504;13.358;2022-09-30T09:26:34;4.07;;;2.63;;
41568;SDS011;27283;52.504;13.358;2022-09-30T09:29:09;5.22;;;3.03;;
41568;SDS011;27283;52.504;13.358;2022-09-30T09:31:53;4.93;;;2.25;;
41568;SDS011;27283;52.504;13.358;2022-09-30T09:34:26;2.60;;;1.70;;
41568;SDS011;27283;52.504;13.358;2022-09-30T09:37:12;3.97;;;1.52;;
41568;SDS011;27283;52.504;13.358;2022-09-30T09:40:12;3.83;;;1.88;;
41568;SDS011;27283;52.504;13.358;2022-09-30T09:42:53;3.72;;;2.45;;
41568;SDS011;27283;52.504;13.358;2022-09-30T09:45:35;3.28;;;1.60;;
41568;SDS011;27283;52.504;13.358;2022-09-30T09:48:13;3.40;;;1.45;;
41568;SDS011;27283;52.504;13.358;2022-09-30T09:50:47;5.03;;;2.42;;
41568;SDS011;27283;52.504;13.358;2022-09-30T09:53:36;6.30;;;2.22;;
41568;SDS011;27283;52.504;13.358;2022-09-30T09:56:15;1.92;;;1.50;;
41568;SDS011;27283;52.504;13.358;2022-09-30T10:01:39;1.95;;;1.48;;
41568;SDS011;27283;52.504;13.358;2022-09-30T10:04:15;7.47;;;1.90;;
41568;SDS011;27283;52.504;13.358;2022-09-30T10:06:52;4.45;;;1.80;;
41568;SDS011;27283;52.504;13.358;2022-09-30T10:09:31;4.65;;;2.63;;
41568;SDS011;27283;52.504;13.358;2022-09-30T10:15:00;1.88;;;1.58;;
41568;SDS011;27283;52.504;13.358;2022-09-30T10:17:35;2.63;;;1.85;;
41568;SDS011;27283;52.504;13.358;2022-09-30T10:20:25;8.60;;;2.00;;
41568;SDS011;27283;52.504;13.358;2022-09-30T10:23:01;3.22;;;1.95;;
41568;SDS011;27283;52.504;13.358;2022-09-30T10:25:42;1.58;;;1.15;;
41568;SDS011;27283;52.504;13.358;2022-09-30T10:28:43;1.30;;;1.20;;
41568;SDS011;27283;52.504;13.358;2022-09-30T10:31:21;2.75;;;1.25;;
41568;SDS011;27283;52.504;13.358;2022-09-30T10:33:58;5.28;;;2.35;;
41568;SDS011;27283;52.504;13.358;2022-09-30T10:36:34;1.20;;;1.10;;
41568;SDS011;27283;52.504;13.358;2022-09-30T10:39:14;2.75;;;1.20;;
41568;SDS011;27283;52.504;13.358;2022-09-30T10:42:02;2.92;;;1.63;;
41568;SDS011;27283;52.504;13.358;2022-09-30T10:44:40;4.28;;;1.38;;
41568;SDS011;27283;52.504;13.358;2022-09-30T10:47:17;2.33;;;1.40;;
41568;SDS011;27283;52.504;13.358;2022-09-30T10:49:54;4.68;;;1.45;;
41568;SDS011;27283;52.504;13.358;2022-09-30T10:52:33;1.55;;;1.00;;
41568;SDS011;27283;52.504;13.358;2022-09-30T10:55:24;2.25;;;1.13;;
41568;SDS011;27283;52.504;13.358;2022-09-30T10:58:19;2.08;;;1.35;;
41568;SDS011;27283;52.504;13.358;2022-09-30T11:00:56;1.67;;;1.42;;
41568;SDS011;27283;52.504;13.358;2022-09-30T11:03:36;1.20;;;0.95;;
41568;SDS011;27283;52.504;13.358;2022-09-30T11:06:15;3.63;;;1.92;;
41568;SDS011;27283;52.504;13.358;2022-09-30T11:08:49;2.03;;;1.08;;
41568;SDS011;27283;52.504;13.358;2022-09-30T11:11:32;1.63;;;1.52;;
41568;SDS011;27283;52.504;13.358;2022-09-30T11:14:28;2.90;;;1.55;;
41568;SDS011;27283;52.504;13.358;2022-09-30T11:17:09;1.27;;;1.00;;
41568;SDS011;27283;52.504;13.358;2022-09-30T11:19:52;0.77;;;0.73;;
41568;SDS011;27283;52.504;13.358;2022-09-30T11:22:35;1.50;;;1.20;;
41568;SDS011;27283;52.504;13.358;2022-09-30T11:25:14;1.02;;;0.93;;
41568;SDS011;27283;52.504;13.358;2022-09-30T11:27:56;1.73;;;1.02;;
41568;SDS011;27283;52.504;13.358;2022-09-30T11:30:42;2.65;;;1.38;;
41568;SDS011;27283;52.504;13.358;2022-09-30T11:33:28;2.38;;;1.08;;
41568;SDS011;27283;52.504;13.358;2022-09-30T11:36:16;2.10;;;1.08;;
41568;SDS011;27283;52.504;13.358;2022-09-30T11:39:00;2.40;;;1.23;;
41568;SDS011;27283;52.504;13.358;2022-09-30T11:41:46;2.15;;;1.20;;
41568;SDS011;27283;52.504;13.358;2022-09-30T11:44:26;1.40;;;1.17;;
41568;SDS011;27283;52.504;13.358;2022-09-30T11:47:11;1.55;;;1.17;;
41568;SDS011;27283;52.504;13.358;2022-09-30T11:50:01;1.90;;;0.90;;
41568;SDS011;27283;52.504;13.358;2022-09-30T11:52:48;2.00;;;0.60;;
41568;SDS011;27283;52.504;13.358;2022-09-30T11:55:30;0.88;;;0.70;;
41568;SDS011;27283;52.504;13.358;2022-09-30T11:58:13;0.95;;;0.82;;
41568;SDS011;27283;52.504;13.358;2022-09-30T12:01:12;1.80;;;0.80;;
41568;SDS011;27283;52.504;13.358;2022-09-30T12:03:56;0.52;;;0.50;;
41568;SDS011;27283;52.504;13.358;2022-09-30T12:06:34;0.52;;;0.50;;
41568;SDS011;27283;52.504;13.358;2022-09-30T12:09:14;1.10;;;0.73;;
41568;SDS011;27283;52.504;13.358;2022-09-30T12:11:53;0.90;;;0.60;;
41568;SDS011;27283;52.504;13.358;2022-09-30T12:14:32;0.50;;;0.50;;
41568;SDS011;27283;52.504;13.358;2022-09-30T12:17:10;0.70;;;0.60;;
41568;SDS011;27283;52.504;13.358;2022-09-30T12:19:53;0.77;;;0.50;;
41568;SDS011;27283;52.504;13.358;2022-09-30T12:22:30;0.98;;;0.75;;
41568;SDS011;27283;52.504;13.358;2022-09-30T12:25:10;0.68;;;0.68;;
41568;SDS011;27283;52.504;13.358;2022-09-30T12:27:45;2.25;;;1.13;;
41568;SDS011;27283;52.504;13.358;2022-09-30T12:30:23;1.35;;;0.65;;
41568;SDS011;27283;52.504;13.358;2022-09-30T12:39:08;0.80;;;0.70;;
41568;SDS011;27283;52.504;13.358;2022-09-30T12:42:02;0.73;;;0.50;;
41568;SDS011;27283;52.504;13.358;2022-09-30T12:47:57;0.40;;;0.40;;
41568;SDS011;27283;52.504;13.358;2022-09-30T12:50:38;0.43;;;0.43;;
41568;SDS011;27283;52.504;13.358;2022-09-30T12:53:19;3.08;;;0.70;;
41568;SDS011;27283;52.504;13.358;2022-09-30T12:56:00;0.60;;;0.50;;
41568;SDS011;27283;52.504;13.358;2022-09-30T12:58:36;2.55;;;0.80;;
41568;SDS011;27283;52.504;13.358;2022-09-30T13:01:13;0.50;;;0.30;;
41568;SDS011;27283;52.504;13.358;2022-09-30T13:03:49;0.35;;;0.30;;
41568;SDS011;27283;52.504;13.358;2022-09-30T13:06:24;0.60;;;0.60;;
41568;SDS011;27283;52.504;13.358;2022-09-30T13:09:19;0.68;;;0.60;;
41568;SDS011;27283;52.504;13.358;2022-09-30T13:17:54;0.40;;;0.40;;
41568;SDS011;27283;52.504;13.358;2022-09-30T13:20:50;0.60;;;0.60;;
41568;SDS011;27283;52.504;13.358;2022-09-30T13:23:34;3.75;;;0.93;;
41568;SDS011;27283;52.504;13.358;2022-09-30T13:32:32;1.15;;;0.70;;
41568;SDS011;27283;52.504;13.358;2022-09-30T13:38:15;0.55;;;0.32;;
41568;SDS011;27283;52.504;13.358;2022-09-30T13:40:49;0.35;;;0.35;;
41568;SDS011;27283;52.504;13.358;2022-09-30T13:43:32;0.28;;;0.28;;
41568;SDS011;27283;52.504;13.358;2022-09-30T13:48:59;0.73;;;0.68;;
41568;SDS011;27283;52.504;13.358;2022-09-30T13:51:35;0.40;;;0.40;;
41568;SDS011;27283;52.504;13.358;2022-09-30T13:54:11;0.80;;;0.57;;
41568;SDS011;27283;52.504;13.358;2022-09-30T13:56:50;0.45;;;0.43;;
41568;SDS011;27283;52.504;13.358;2022-09-30T13:59:27;1.10;;;0.50;;
41568;SDS011;27283;52.504;13.358;2022-09-30T14:05:36;0.82;;;0.43;;
41568;SDS011;27283;52.504;13.358;2022-09-30T14:08:37;4.38;;;0.80;;
41568;SDS011;27283;52.504;13.358;2022-09-30T14:14:41;5.28;;;0.90;;
41568;SDS011;27283;52.504;13.358;2022-09-30T14:17:37;0.40;;;0.40;;
41568;SDS011;27283;52.504;13.358;2022-09-30T14:20:26;0.77;;;0.55;;
41568;SDS011;27283;52.504;13.358;2022-09-30T14:23:15;0.40;;;0.40;;
41568;SDS011;27283;52.504;13.358;2022-09-30T14:25:51;0.73;;;0.45;;
41568;SDS011;27283;52.504;13.358;2022-09-30T14:28:31;2.00;;;0.45;;
41568;SDS011;27283;52.504;13.358;2022-09-30T14:31:12;0.30;;;0.30;;
41568;SDS011;27283;52.504;13.358;2022-09-30T14:33:47;0.77;;;0.60;;
41568;SDS011;27283;52.504;13.358;2022-09-30T14:36:21;0.45;;;0.45;;
41568;SDS011;27283;52.504;13.358;2022-09-30T14:38:58;0.93;;;0.70;;
41568;SDS011;27283;52.504;13.358;2022-09-30T14:41:33;0.32;;;0.30;;
41568;SDS011;27283;52.504;13.358;2022-09-30T14:44:10;1.10;;;0.57;;
41568;SDS011;27283;52.504;13.358;2022-09-30T14:46:47;0.50;;;0.50;;
41568;SDS011;27283;52.504;13.358;2022-09-30T14:49:29;1.02;;;0.55;;
41568;SDS011;27283;52.504;13.358;2022-09-30T14:52:06;0.60;;;0.60;;
41568;SDS011;27283;52.504;13.358;2022-09-30T14:55:20;1.17;;;0.45;;
41568;SDS011;27283;52.504;13.358;2022-09-30T14:57:56;1.00;;;0.55;;
41568;SDS011;27283;52.504;13.358;2022-09-30T15:00:55;0.40;;;0.40;;
41568;SDS011;27283;52.504;13.358;2022-09-30T15:03:34;0.45;;;0.43;;
41568;SDS011;27283;52.504;13.358;2022-09-30T15:06:15;1.02;;;0.77;;
41568;SDS011;27283;52.504;13.358;2022-09-30T15:08:50;0.77;;;0.52;;
41568;SDS011;27283;52.504;13.358;2022-09-30T15:11:34;0.52;;;0.50;;
41568;SDS011;27283;52.504;13.358;2022-09-30T15:14:08;1.00;;;0.43;;
41568;SDS011;27283;52.504;13.358;2022-09-30T15:16:48;0.75;;;0.55;;
41568;SDS011;27283;52.504;13.358;2022-09-30T15:19:22;3.13;;;1.40;;
41568;SDS011;27283;52.504;13.358;2022-09-30T15:21:57;0.68;;;0.55;;
41568;SDS011;27283;52.504;13.358;2022-09-30T15:24:37;5.57;;;1.30;;
41568;SDS011;27283;52.504;13.358;2022-09-30T15:27:22;1.08;;;0.40;;
41568;SDS011;27283;52.504;13.358;2022-09-30T15:29:58;2.83;;;0.60;;
41568;SDS011;27283;52.504;13.358;2022-09-30T15:32:33;1.02;;;0.75;;
41568;SDS011;27283;52.504;13.358;2022-09-30T15:35:11;1.08;;;0.73;;
41568;SDS011;27283;52.504;13.358;2022-09-30T15:37:47;0.50;;;0.50;;
41568;SDS011;27283;52.504;13.358;2022-09-30T15:40:24;0.90;;;0.45;;
41568;SDS011;27283;52.504;13.358;2022-09-30T15:43:12;0.70;;;0.57;;
41568;SDS011;27283;52.504;13.358;2022-09-30T15:45:52;1.52;;;0.70;;
41568;SDS011;27283;52.504;13.358;2022-09-30T15:48:32;0.40;;;0.40;;
41568;SDS011;27283;52.504;13.358;2022-09-30T15:51:21;0.60;;;0.60;;
41568;SDS011;27283;52.504;13.358;2022-09-30T15:57:14;0.45;;;0.45;;
41568;SDS011;27283;52.504;13.358;2022-09-30T16:00:32;0.80;;;0.80;;
41568;SDS011;27283;52.504;13.358;2022-09-30T16:06:03;1.55;;;0.77;;
41568;SDS011;27283;52.504;13.358;2022-09-30T16:08:40;1.05;;;0.60;;
41568;SDS011;27283;52.504;13.358;2022-09-30T16:11:18;2.08;;;0.90;;
41568;SDS011;27283;52.504;13.358;2022-09-30T16:13:54;0.60;;;0.60;;
41568;SDS011;27283;52.504;13.358;2022-09-30T16:16:33;0.93;;;0.60;;
41568;SDS011;27283;52.504;13.358;2022-09-30T16:19:13;0.43;;;0.43;;
41568;SDS011;27283;52.504;13.358;2022-09-30T16:21:48;1.15;;;1.05;;
41568;SDS011;27283;52.504;13.358;2022-09-30T16:27:24;0.77;;;0.73;;
41568;SDS011;27283;52.504;13.358;2022-09-30T16:30:01;0.85;;;0.82;;
41568;SDS011;27283;52.504;13.358;2022-09-30T16:32:37;0.68;;;0.68;;
41568;SDS011;27283;52.504;13.358;2022-09-30T16:35:14;3.08;;;1.20;;
41568;SDS011;27283;52.504;13.358;2022-09-30T16:37:49;1.13;;;0.90;;
41568;SDS011;27283;52.504;13.358;2022-09-30T16:40:28;1.27;;;1.05;;
41568;SDS011;27283;52.504;13.358;2022-09-30T16:43:04;3.67;;;1.45;;